createdAt,value
2023-11-22T00:03:46.704Z,9.40
2023-11-22T00:08:48.531Z,9.15
2023-11-22T00:13:50.276Z,8.55
2023-11-22T00:18:52.021Z,8.70
2023-11-22T00:23:53.701Z,9.35
2023-11-22T00:28:55.588Z,9.25
2023-11-22T00:33:57.407Z,9.40
2023-11-22T00:38:59.125Z,9.57
2023-11-22T00:44:00.924Z,9.30
2023-11-22T00:49:02.697Z,9.77
2023-11-22T00:54:04.739Z,10.27
2023-11-22T00:59:06.608Z,9.43
2023-11-22T01:04:08.710Z,10.40
2023-11-22T01:09:10.526Z,9.20
2023-11-22T01:14:12.419Z,9.02
2023-11-22T01:19:17.356Z,9.75
2023-11-22T01:24:19.145Z,9.60
2023-11-22T01:29:21.731Z,8.65
2023-11-22T01:34:23.896Z,10.15
2023-11-22T01:39:25.762Z,9.55
2023-11-22T01:44:28.037Z,11.23
2023-11-22T01:49:30.862Z,10.85
2023-11-22T01:54:32.975Z,9.60
2023-11-22T01:59:34.943Z,9.85
2023-11-22T02:04:36.622Z,9.45
2023-11-22T02:09:39.360Z,9.07
2023-11-22T02:14:41.117Z,10.30
2023-11-22T02:19:44.806Z,9.35
2023-11-22T02:24:48.453Z,8.80
2023-11-22T02:29:51.240Z,9.73
2023-11-22T02:34:53.075Z,9.38
2023-11-22T02:40:23.365Z,9.95
2023-11-22T02:45:29.451Z,9.98
2023-11-22T02:50:35.619Z,8.57
2023-11-22T02:55:37.605Z,9.30
2023-11-22T03:00:42.173Z,8.55
2023-11-22T03:05:43.904Z,7.85
2023-11-22T03:10:53.066Z,8.70
2023-11-22T03:15:54.911Z,9.52
2023-11-22T03:20:56.634Z,9.95
2023-11-22T03:25:59.640Z,9.68
2023-11-22T03:31:01.370Z,9.13
2023-11-22T03:36:03.332Z,9.45
2023-11-22T03:41:06.705Z,8.40
2023-11-22T03:46:08.757Z,8.68
2023-11-22T03:51:10.593Z,9.02
2023-11-22T03:56:12.330Z,9.98
2023-11-22T04:01:14.166Z,9.15
2023-11-22T04:06:20.299Z,9.77
2023-11-22T04:11:22.825Z,9.52
2023-11-22T04:16:24.641Z,10.43
2023-11-22T04:21:27.226Z,8.38
2023-11-22T04:26:29.011Z,10.13
2023-11-22T04:31:30.905Z,9.43
2023-11-22T04:36:32.959Z,10.07
2023-11-22T04:41:35.769Z,10.95
2023-11-22T04:46:37.578Z,9.73
2023-11-22T04:51:39.257Z,9.18
2023-11-22T04:56:41.131Z,10.30
2023-11-22T05:01:42.848Z,9.18
2023-11-22T05:06:45.004Z,9.25
2023-11-22T05:11:47.188Z,9.45
2023-11-22T05:16:48.943Z,8.95
2023-11-22T05:21:50.707Z,8.55
2023-11-22T05:26:52.853Z,10.43
2023-11-22T05:31:54.569Z,9.75
2023-11-22T05:36:56.424Z,8.73
2023-11-22T05:41:58.054Z,9.63
2023-11-22T05:46:59.722Z,8.95
2023-11-22T05:52:01.466Z,9.13
2023-11-22T05:57:03.146Z,10.55
2023-11-22T06:02:05.031Z,9.63
2023-11-22T06:07:06.769Z,9.85
2023-11-22T06:12:08.537Z,9.75
2023-11-22T06:17:10.258Z,9.75
2023-11-22T06:22:11.957Z,9.98
2023-11-22T06:27:13.838Z,10.25
2023-11-22T06:32:15.641Z,10.32
2023-11-22T06:37:17.411Z,9.60
2023-11-22T06:42:20.746Z,8.88
2023-11-22T06:47:22.541Z,9.57
2023-11-22T06:52:24.323Z,9.38
2023-11-22T06:57:30.070Z,10.20
2023-11-22T07:02:36.272Z,10.77
2023-11-22T07:07:38.728Z,11.02
2023-11-22T07:12:41.203Z,11.02
2023-11-22T07:17:43.338Z,9.60
2023-11-22T07:22:45.296Z,10.45
2023-11-22T07:27:48.194Z,12.93
2023-11-22T07:32:53.398Z,10.85
2023-11-22T07:37:55.741Z,12.27
2023-11-22T07:42:57.573Z,11.68
2023-11-22T07:48:01.022Z,12.73
2023-11-22T07:53:04.870Z,10.90
2023-11-22T07:58:09.831Z,10.57
2023-11-22T08:03:11.774Z,12.18
2023-11-22T08:08:14.421Z,11.70
2023-11-22T08:13:17.481Z,11.02
2023-11-22T08:18:19.273Z,10.57
2023-11-22T08:23:21.531Z,10.75
2023-11-22T08:28:23.233Z,10.52
2023-11-22T08:33:25.030Z,11.88
2023-11-22T08:38:27.669Z,10.70
2023-11-22T08:43:29.666Z,12.00
2023-11-22T08:48:32.146Z,12.10
2023-11-22T08:53:33.923Z,11.18
2023-11-22T08:58:35.820Z,11.48
2023-11-22T09:03:39.387Z,11.55
2023-11-22T09:08:41.324Z,10.63
2023-11-22T09:13:43.882Z,10.55
2023-11-22T09:18:45.791Z,9.98
2023-11-22T09:23:49.672Z,12.25
2023-11-22T09:28:51.819Z,11.88
2023-11-22T09:33:53.773Z,11.57
2023-11-22T09:38:55.662Z,11.77
2023-11-22T09:43:57.498Z,10.18
2023-11-22T09:49:00.200Z,11.57
2023-11-22T09:54:08.384Z,10.90
2023-11-22T09:59:14.534Z,8.88
2023-11-22T10:04:16.673Z,9.60
2023-11-22T10:09:18.605Z,9.13
2023-11-22T10:14:26.233Z,9.02
2023-11-22T10:19:29.507Z,9.55
2023-11-22T10:24:35.025Z,8.55
2023-11-22T10:29:39.437Z,7.80
2023-11-22T10:34:44.103Z,8.52
2023-11-22T10:39:52.916Z,7.35
2023-11-22T10:45:00.116Z,7.97
2023-11-22T10:55:07.982Z,6.07
2023-11-22T11:00:13.791Z,7.10
2023-11-22T11:05:29.392Z,6.50
2023-11-22T11:10:32.960Z,5.93
2023-11-22T11:15:39.267Z,7.15
2023-11-22T11:20:50.756Z,8.13
2023-11-22T11:26:09.772Z,6.57
2023-11-22T11:31:11.635Z,6.72
2023-11-22T11:36:15.790Z,5.72
2023-11-22T11:41:17.919Z,5.68
2023-11-22T11:46:20.084Z,6.18
2023-11-22T11:51:25.025Z,6.28
2023-11-22T11:56:30.098Z,6.90
2023-11-22T12:01:34.337Z,5.22
2023-11-22T12:06:40.093Z,5.20
2023-11-22T12:11:43.988Z,5.63
2023-11-22T12:16:48.917Z,5.10
2023-11-22T12:21:51.573Z,5.03
2023-11-22T12:26:53.342Z,5.80
2023-11-22T12:31:56.496Z,6.45
2023-11-22T12:36:58.777Z,5.55
2023-11-22T12:42:07.006Z,4.82
2023-11-22T12:47:12.792Z,4.22
2023-11-22T12:52:15.096Z,4.57
2023-11-22T12:57:19.685Z,4.75
2023-11-22T13:02:22.532Z,4.45
2023-11-22T13:07:24.306Z,5.15
2023-11-22T13:12:26.060Z,5.22
2023-11-22T13:17:27.820Z,4.85
2023-11-22T13:22:30.142Z,5.20
2023-11-22T13:27:31.892Z,5.20
2023-11-22T13:32:34.362Z,5.05
2023-11-22T13:37:36.505Z,5.30
2023-11-22T13:42:38.823Z,5.90
2023-11-22T13:47:40.808Z,4.78
2023-11-22T13:52:43.342Z,5.68
2023-11-22T13:57:45.324Z,5.15
2023-11-22T14:02:56.887Z,6.25
2023-11-22T14:07:59.593Z,5.20
2023-11-22T14:13:03.111Z,5.57
2023-11-22T14:18:05.936Z,5.63
2023-11-22T14:23:08.975Z,6.05
2023-11-22T14:28:10.981Z,5.72
2023-11-22T14:33:13.020Z,5.35
2023-11-22T14:38:14.921Z,6.13
2023-11-22T14:43:17.041Z,6.15
2023-11-22T14:48:19.433Z,6.30
2023-11-22T14:53:21.359Z,5.85
2023-11-22T14:58:23.210Z,5.82
2023-11-22T15:03:27.780Z,5.82
2023-11-22T15:08:29.806Z,5.35
2023-11-22T15:13:32.024Z,6.72
2023-11-22T15:18:33.977Z,7.05
2023-11-22T15:23:36.634Z,7.03
2023-11-22T15:28:38.496Z,7.05
2023-11-22T15:33:40.381Z,6.40
2023-11-22T15:38:42.250Z,7.18
2023-11-22T15:43:44.523Z,6.93
2023-11-22T15:48:46.641Z,11.93
2023-11-22T15:53:48.781Z,24.40
2023-11-22T15:58:51.042Z,8.50
2023-11-22T16:03:53.032Z,8.20
2023-11-22T16:08:56.489Z,9.38
2023-11-22T16:13:58.772Z,9.30
2023-11-22T16:19:07.133Z,9.18
2023-11-22T16:24:18.190Z,8.88
2023-11-22T16:29:26.491Z,8.95
2023-11-22T16:34:35.263Z,10.07
2023-11-22T16:39:37.445Z,8.75
2023-11-22T16:44:43.985Z,9.13
2023-11-22T16:49:47.383Z,9.25
2023-11-22T16:54:51.714Z,8.05
2023-11-22T16:59:53.809Z,8.27
2023-11-22T17:04:56.969Z,8.70
2023-11-22T17:09:58.890Z,8.50
2023-11-22T17:15:00.800Z,8.55
2023-11-22T17:20:05.557Z,10.07
2023-11-22T17:25:14.516Z,8.90
2023-11-22T17:30:17.338Z,10.75
2023-11-22T17:35:19.707Z,12.32
2023-11-22T17:40:21.880Z,8.30
2023-11-22T17:45:23.651Z,10.23
2023-11-22T17:50:27.795Z,9.27
2023-11-22T17:55:30.007Z,8.52
2023-11-22T18:00:31.948Z,9.38
2023-11-22T18:05:34.027Z,9.82
2023-11-22T18:10:41.929Z,11.52
2023-11-22T18:15:49.398Z,9.20
2023-11-22T18:20:51.690Z,9.68
2023-11-22T18:25:54.396Z,11.45
2023-11-22T18:30:56.219Z,11.80
2023-11-22T18:35:58.627Z,10.77
2023-11-22T18:41:04.487Z,10.10
2023-11-22T18:46:08.092Z,11.95
2023-11-22T18:51:10.496Z,9.98
2023-11-22T18:56:13.062Z,10.75
2023-11-22T19:01:14.918Z,11.10
2023-11-22T19:06:16.827Z,11.45
2023-11-22T19:11:18.664Z,12.38
2023-11-22T19:16:22.043Z,10.10
2023-11-22T19:21:24.527Z,11.38
2023-11-22T19:26:26.848Z,10.95
2023-11-22T19:31:28.633Z,11.13
2023-11-22T19:36:30.495Z,9.95
2023-11-22T19:41:32.522Z,10.15
2023-11-22T19:46:34.308Z,10.52
2023-11-22T19:51:40.402Z,10.13
2023-11-22T19:56:43.107Z,9.77
2023-11-22T20:01:45.070Z,9.85
2023-11-22T20:06:48.953Z,10.35
2023-11-22T20:11:51.369Z,9.95
2023-11-22T20:16:53.350Z,9.27
2023-11-22T20:21:55.241Z,10.90
2023-11-22T20:26:57.516Z,9.27
2023-11-22T20:31:59.724Z,9.07
2023-11-22T20:37:01.568Z,9.32
2023-11-22T20:42:03.626Z,10.35
2023-11-22T20:47:06.060Z,8.50
2023-11-22T20:52:07.910Z,9.18
2023-11-22T20:57:10.157Z,10.25
2023-11-22T21:02:12.083Z,9.25
2023-11-22T21:07:13.970Z,9.40
2023-11-22T21:12:15.747Z,8.10
2023-11-22T21:17:18.998Z,8.88
2023-11-22T21:22:20.930Z,7.97
2023-11-22T21:27:23.352Z,8.20
2023-11-22T21:32:25.173Z,7.72
2023-11-22T21:37:27.000Z,7.05
2023-11-22T21:42:28.975Z,7.85
2023-11-22T21:47:31.655Z,8.27
2023-11-22T21:52:33.840Z,6.03
2023-11-22T21:57:35.689Z,7.18
2023-11-22T22:02:38.977Z,9.38
2023-11-22T22:07:40.832Z,7.47
2023-11-22T22:12:42.712Z,5.43
2023-11-22T22:17:44.542Z,5.30
2023-11-22T22:22:47.527Z,4.75
2023-11-22T22:27:49.726Z,4.53
2023-11-22T22:32:53.084Z,4.88
2023-11-22T22:37:55.108Z,7.22
2023-11-22T22:42:56.835Z,4.85
2023-11-22T22:47:58.583Z,5.43
2023-11-22T22:53:00.913Z,3.90
2023-11-22T22:58:04.042Z,5.28
2023-11-22T23:03:06.296Z,4.22
2023-11-22T23:08:10.234Z,4.35
2023-11-22T23:13:12.787Z,3.42
2023-11-22T23:18:14.782Z,4.35
2023-11-22T23:23:17.692Z,4.55
2023-11-22T23:28:19.599Z,3.75
2023-11-22T23:33:21.475Z,4.78
2023-11-22T23:38:23.253Z,3.13
2023-11-22T23:43:30.034Z,3.35
2023-11-22T23:48:32.201Z,3.38
2023-11-22T23:53:35.339Z,3.63
2023-11-22T23:58:37.224Z,3.50
